createdAt,value
2019-03-03T00:02:00.486Z,10.32
2019-03-03T00:04:30.364Z,10.20
2019-03-03T00:06:59.160Z,10.22
2019-03-03T00:09:27.782Z,10.24
2019-03-03T00:11:56.432Z,10.16
2019-03-03T00:14:25.133Z,10.23
2019-03-03T00:16:53.888Z,10.18
2019-03-03T00:19:22.604Z,10.37
2019-03-03T00:21:51.362Z,10.37
2019-03-03T00:24:20.011Z,10.20
2019-03-03T00:26:48.797Z,10.28
2019-03-03T00:29:17.378Z,10.30
2019-03-03T00:31:46.021Z,10.19
2019-03-03T00:34:14.737Z,10.35
2019-03-03T00:37:01.044Z,10.29
2019-03-03T00:39:45.201Z,10.17
2019-03-03T00:42:38.854Z,10.17
2019-03-03T00:45:40.137Z,10.19
2019-03-03T00:48:26.308Z,10.19
2019-03-03T00:51:28.910Z,10.29
2019-03-03T00:54:20.572Z,10.26
2019-03-03T00:56:57.444Z,10.17
2019-03-03T00:59:44.572Z,10.26
2019-03-03T01:02:34.205Z,10.31
2019-03-03T01:05:13.728Z,10.13
2019-03-03T01:08:13.985Z,10.14
2019-03-03T01:10:49.514Z,10.06
2019-03-03T01:13:36.173Z,10.08
2019-03-03T01:16:23.982Z,10.00
2019-03-03T01:19:05.488Z,10.06
2019-03-03T01:21:39.434Z,10.11
2019-03-03T01:24:19.980Z,10.08
2019-03-03T01:26:48.620Z,10.05
2019-03-03T01:29:17.346Z,10.04
2019-03-03T01:31:46.056Z,10.11
2019-03-03T01:34:14.743Z,10.15
2019-03-03T01:36:43.374Z,10.09
2019-03-03T01:39:12.858Z,10.12
2019-03-03T01:41:41.492Z,10.00
2019-03-03T01:44:10.136Z,9.89
2019-03-03T01:46:38.741Z,9.92
2019-03-03T01:49:07.446Z,10.06
2019-03-03T01:51:36.147Z,9.87
2019-03-03T01:54:04.799Z,9.90
2019-03-03T01:56:33.490Z,9.92
2019-03-03T01:59:02.104Z,9.97
2019-03-03T02:01:30.839Z,9.89
2019-03-03T02:03:59.462Z,9.93
2019-03-03T02:06:28.132Z,10.06
2019-03-03T02:08:56.774Z,10.01
2019-03-03T02:11:25.501Z,9.94
2019-03-03T02:13:54.149Z,9.92
2019-03-03T02:16:22.874Z,10.02
2019-03-03T02:18:52.386Z,10.04
2019-03-03T02:21:21.035Z,10.05
2019-03-03T02:23:49.678Z,10.05
2019-03-03T02:26:18.418Z,9.98
2019-03-03T02:28:47.083Z,10.07
2019-03-03T02:31:15.708Z,9.99
2019-03-03T02:33:44.427Z,9.98
2019-03-03T02:36:13.219Z,9.97
2019-03-03T02:38:41.820Z,9.88
2019-03-03T02:41:10.491Z,9.87
2019-03-03T02:43:40.468Z,9.96
2019-03-03T02:46:09.257Z,9.92
2019-03-03T02:48:37.964Z,9.95
2019-03-03T02:51:06.636Z,9.99
2019-03-03T02:53:35.358Z,9.91
2019-03-03T02:56:04.018Z,9.86
2019-03-03T02:58:32.697Z,9.92
2019-03-03T03:01:06.893Z,9.94
2019-03-03T03:03:35.497Z,9.91
2019-03-03T03:06:12.684Z,9.91
2019-03-03T03:08:58.954Z,9.93
2019-03-03T03:11:53.043Z,10.00
2019-03-03T03:14:40.679Z,10.04
2019-03-03T03:17:16.437Z,9.99
2019-03-03T03:19:56.766Z,10.04
2019-03-03T03:22:34.998Z,10.06
2019-03-03T03:25:22.667Z,10.09
2019-03-03T03:27:57.514Z,10.11
2019-03-03T03:30:32.321Z,10.10
2019-03-03T03:33:22.707Z,10.13
2019-03-03T03:36:02.158Z,10.15
2019-03-03T03:38:55.151Z,10.17
2019-03-03T03:41:37.450Z,10.20
2019-03-03T03:44:36.913Z,10.18
2019-03-03T03:47:25.737Z,10.29
2019-03-03T03:50:15.213Z,10.13
2019-03-03T03:52:54.137Z,10.13
2019-03-03T03:55:43.923Z,10.15
2019-03-03T03:58:31.572Z,10.17
2019-03-03T04:01:14.356Z,10.15
2019-03-03T04:03:47.912Z,10.11
2019-03-03T04:06:21.659Z,10.12
2019-03-03T04:08:57.428Z,10.21
2019-03-03T04:11:37.970Z,10.14
2019-03-03T04:14:14.556Z,10.17
2019-03-03T04:17:04.969Z,10.09
2019-03-03T04:19:52.626Z,10.02
2019-03-03T04:22:30.205Z,9.98
2019-03-03T04:25:08.493Z,10.04
2019-03-03T04:27:53.161Z,10.08
2019-03-03T04:30:46.710Z,10.12
2019-03-03T04:33:37.559Z,10.19
2019-03-03T04:36:25.268Z,10.09
2019-03-03T04:39:18.627Z,10.11
2019-03-03T04:41:55.784Z,10.10
2019-03-03T04:44:32.085Z,10.14
2019-03-03T04:47:16.422Z,10.09
2019-03-03T04:50:06.273Z,10.10
2019-03-03T04:52:39.783Z,10.13
2019-03-03T04:55:33.626Z,10.15
2019-03-03T04:58:09.294Z,10.15
2019-03-03T05:00:57.354Z,10.10
2019-03-03T05:04:03.183Z,10.12
2019-03-03T05:06:41.011Z,10.16
2019-03-03T05:09:19.124Z,10.17
2019-03-03T05:12:38.019Z,10.12
2019-03-03T05:15:31.097Z,10.11
2019-03-03T05:18:11.034Z,10.02
2019-03-03T05:20:47.037Z,10.08
2019-03-03T05:23:15.731Z,10.12
2019-03-03T05:25:44.373Z,10.10
2019-03-03T05:28:12.997Z,10.17
2019-03-03T05:30:41.712Z,10.12
2019-03-03T05:33:10.362Z,10.11
2019-03-03T05:35:39.020Z,10.12
2019-03-03T05:38:07.707Z,10.18
2019-03-03T05:40:36.421Z,10.11
2019-03-03T05:43:05.105Z,10.11
2019-03-03T05:45:33.739Z,10.10
2019-03-03T05:48:02.367Z,10.11
2019-03-03T05:50:31.003Z,10.18
2019-03-03T05:52:59.645Z,10.14
2019-03-03T05:55:28.337Z,10.22
2019-03-03T05:57:56.948Z,10.22
2019-03-03T06:00:25.695Z,10.21
2019-03-03T06:02:54.302Z,10.27
2019-03-03T06:05:22.946Z,10.23
2019-03-03T06:07:51.554Z,10.20
2019-03-03T06:10:20.241Z,10.20
2019-03-03T06:12:48.883Z,10.20
2019-03-03T06:15:17.519Z,10.20
2019-03-03T06:17:46.294Z,10.18
2019-03-03T06:20:15.011Z,10.22
2019-03-03T06:22:43.657Z,10.20
2019-03-03T06:25:12.699Z,10.21
2019-03-03T06:27:41.508Z,10.22
2019-03-03T06:30:15.346Z,10.22
2019-03-03T06:32:44.154Z,10.24
2019-03-03T06:35:13.022Z,10.24
2019-03-03T06:37:41.771Z,10.25
2019-03-03T06:40:10.739Z,10.21
2019-03-03T06:42:39.855Z,10.24
2019-03-03T06:45:09.779Z,10.21
2019-03-03T06:47:38.599Z,10.25
2019-03-03T06:50:13.068Z,10.23
2019-03-03T06:52:43.539Z,10.26
2019-03-03T06:55:12.581Z,10.30
2019-03-03T06:57:42.983Z,10.25
2019-03-03T07:00:14.670Z,10.32
2019-03-03T07:02:45.175Z,10.26
2019-03-03T07:05:13.945Z,10.27
2019-03-03T07:07:43.463Z,10.26
2019-03-03T07:10:13.947Z,10.19
2019-03-03T07:12:43.299Z,10.26
2019-03-03T07:15:14.120Z,10.28
2019-03-03T07:17:43.234Z,10.35
2019-03-03T07:20:13.511Z,10.36
2019-03-03T07:22:43.686Z,10.38
2019-03-03T07:25:12.792Z,10.35
2019-03-03T07:27:41.609Z,10.36
2019-03-03T07:30:12.811Z,10.32
2019-03-03T07:32:47.256Z,10.34
2019-03-03T07:35:16.119Z,10.34
2019-03-03T07:37:44.940Z,10.37
2019-03-03T07:40:13.755Z,10.43
2019-03-03T07:42:42.589Z,10.39
2019-03-03T07:45:11.698Z,10.38
2019-03-03T07:47:40.468Z,10.39
2019-03-03T07:50:09.227Z,10.46
2019-03-03T07:52:38.108Z,10.44
2019-03-03T07:55:07.749Z,10.48
2019-03-03T07:57:36.566Z,10.43
2019-03-03T08:00:07.407Z,10.48
2019-03-03T08:02:36.187Z,10.52
2019-03-03T08:05:05.212Z,10.49
2019-03-03T08:07:35.035Z,10.48
2019-03-03T08:10:06.203Z,10.44
2019-03-03T08:12:35.099Z,10.46
2019-03-03T08:15:04.571Z,10.48
2019-03-03T08:17:33.890Z,10.48
2019-03-03T08:20:02.707Z,10.48
2019-03-03T08:22:31.561Z,10.48
2019-03-03T08:25:00.412Z,10.51
2019-03-03T08:27:34.399Z,10.56
2019-03-03T08:30:04.832Z,10.58
2019-03-03T08:32:33.413Z,10.61
2019-03-03T08:35:02.044Z,10.61
2019-03-03T08:37:30.669Z,10.69
2019-03-03T08:39:59.307Z,10.67
2019-03-03T08:42:34.591Z,10.67
2019-03-03T08:45:34.348Z,10.72
2019-03-03T08:48:24.742Z,10.71
2019-03-03T08:50:57.393Z,10.76
2019-03-03T08:53:46.654Z,10.73
2019-03-03T08:56:25.501Z,10.74
2019-03-03T08:59:03.720Z,10.79
2019-03-03T09:01:47.997Z,10.86
2019-03-03T09:04:26.566Z,10.86
2019-03-03T09:07:19.247Z,10.97
2019-03-03T09:10:25.322Z,11.00
2019-03-03T09:13:14.210Z,11.01
2019-03-03T09:15:52.083Z,11.09
2019-03-03T09:18:32.271Z,11.15
2019-03-03T09:21:18.550Z,11.19
2019-03-03T09:24:01.202Z,11.21
2019-03-03T09:26:47.482Z,11.27
2019-03-03T09:29:26.015Z,11.31
2019-03-03T09:32:13.140Z,11.40
2019-03-03T09:34:50.958Z,11.44
2019-03-03T09:37:28.224Z,11.58
2019-03-03T09:40:14.412Z,11.51
2019-03-03T09:42:50.187Z,11.56
2019-03-03T09:45:31.306Z,11.63
2019-03-03T09:48:13.166Z,11.80
2019-03-03T09:51:03.770Z,11.75
2019-03-03T09:53:45.221Z,11.69
2019-03-03T09:56:31.561Z,11.78
2019-03-03T09:59:19.333Z,11.92
2019-03-03T10:02:07.060Z,11.84
2019-03-03T10:05:00.624Z,11.76
2019-03-03T10:07:53.317Z,11.86
2019-03-03T10:10:39.661Z,11.98
2019-03-03T10:13:14.992Z,12.09
2019-03-03T10:16:15.022Z,12.19
2019-03-03T10:18:50.102Z,12.14
2019-03-03T10:21:28.821Z,12.29
2019-03-03T10:24:16.460Z,12.39
2019-03-03T10:27:02.729Z,12.40
2019-03-03T10:29:40.799Z,12.37
2019-03-03T10:32:43.534Z,12.31
2019-03-03T10:35:28.283Z,12.27
2019-03-03T10:38:05.611Z,12.15
2019-03-03T10:40:48.226Z,12.11
2019-03-03T10:43:37.714Z,12.09
2019-03-03T10:46:14.868Z,12.07
2019-03-03T10:49:20.979Z,12.18
2019-03-03T10:51:58.870Z,12.16
2019-03-03T10:54:40.474Z,12.15
2019-03-03T10:57:21.586Z,12.14
2019-03-03T11:00:04.233Z,12.11
2019-03-03T11:02:50.396Z,12.13
2019-03-03T11:05:36.821Z,12.16
2019-03-03T11:08:30.282Z,12.21
2019-03-03T11:11:23.732Z,12.20
2019-03-03T11:14:16.230Z,12.24
2019-03-03T11:17:04.000Z,12.26
2019-03-03T11:19:43.938Z,12.30
2019-03-03T11:22:24.540Z,12.36
2019-03-03T11:25:17.753Z,12.58
2019-03-03T11:27:54.576Z,12.53
2019-03-03T11:30:51.381Z,12.50
2019-03-03T11:33:39.249Z,12.48
2019-03-03T11:36:26.966Z,12.52
2019-03-03T11:39:05.218Z,12.62
2019-03-03T11:42:01.895Z,12.63
2019-03-03T11:44:48.208Z,12.72
2019-03-03T11:47:23.785Z,12.71
2019-03-03T11:50:20.383Z,12.64
2019-03-03T11:52:55.664Z,12.71
2019-03-03T11:55:29.398Z,12.72
2019-03-03T11:58:13.825Z,12.75
2019-03-03T12:01:04.244Z,12.67
2019-03-03T12:03:54.588Z,12.85
2019-03-03T12:06:41.126Z,12.80
2019-03-03T12:09:35.221Z,12.75
2019-03-03T12:12:14.434Z,12.72
2019-03-03T12:15:00.541Z,12.84
2019-03-03T12:17:50.199Z,12.87
2019-03-03T12:20:27.557Z,12.78
2019-03-03T12:23:20.923Z,12.83
2019-03-03T12:26:11.473Z,12.77
2019-03-03T12:29:01.980Z,12.66
2019-03-03T12:31:50.795Z,12.41
2019-03-03T12:34:24.996Z,12.27
2019-03-03T12:37:27.750Z,12.08
2019-03-03T12:40:21.390Z,11.99
2019-03-03T12:43:14.903Z,12.03
2019-03-03T12:46:20.596Z,11.99
2019-03-03T12:49:17.070Z,11.90
2019-03-03T12:52:04.170Z,11.81
2019-03-03T12:54:41.134Z,11.88
2019-03-03T12:57:40.809Z,11.82
2019-03-03T13:00:16.715Z,11.77
2019-03-03T13:03:03.342Z,11.72
2019-03-03T13:05:44.707Z,11.82
2019-03-03T13:08:21.989Z,11.83
2019-03-03T13:11:08.204Z,11.86
2019-03-03T13:13:44.360Z,11.89
2019-03-03T13:16:18.696Z,11.90
2019-03-03T13:18:59.322Z,12.05
2019-03-03T13:21:45.662Z,12.13
2019-03-03T13:24:26.405Z,12.15
2019-03-03T13:27:19.923Z,12.25
2019-03-03T13:30:10.331Z,12.26
2019-03-03T13:33:16.241Z,12.33
2019-03-03T13:36:12.165Z,12.42
2019-03-03T13:38:49.741Z,12.37
2019-03-03T13:41:27.935Z,12.47
2019-03-03T13:43:56.641Z,12.41
2019-03-03T13:46:25.290Z,12.43
2019-03-03T13:48:53.914Z,12.44
2019-03-03T13:51:22.580Z,12.35
2019-03-03T13:53:51.208Z,12.45
2019-03-03T13:56:20.304Z,12.32
2019-03-03T13:58:49.014Z,12.44
2019-03-03T14:01:17.707Z,12.39
2019-03-03T14:03:46.336Z,12.31
2019-03-03T14:06:15.039Z,12.28
2019-03-03T14:08:43.766Z,12.37
2019-03-03T14:11:12.507Z,12.23
2019-03-03T14:13:41.212Z,12.24
2019-03-03T14:16:09.911Z,12.23
2019-03-03T14:18:38.549Z,12.35
2019-03-03T14:21:07.144Z,12.28
2019-03-03T14:23:35.942Z,12.26
2019-03-03T14:26:04.615Z,12.24
2019-03-03T14:28:33.248Z,12.30
2019-03-03T14:31:01.926Z,12.34
2019-03-03T14:33:32.848Z,12.31
2019-03-03T14:36:01.459Z,12.39
2019-03-03T14:38:30.103Z,12.34
2019-03-03T14:40:58.706Z,12.28
2019-03-03T14:43:27.435Z,12.39
2019-03-03T14:45:58.047Z,12.34
2019-03-03T14:48:28.948Z,12.53
2019-03-03T14:50:57.977Z,12.50
2019-03-03T14:53:27.090Z,12.46
2019-03-03T14:55:56.009Z,12.46
2019-03-03T14:58:27.999Z,12.42
2019-03-03T15:01:00.986Z,12.55
2019-03-03T15:03:30.426Z,12.64
2019-03-03T15:06:00.083Z,12.77
2019-03-03T15:08:53.898Z,12.89
2019-03-03T15:11:22.955Z,12.93
2019-03-03T15:13:52.756Z,12.78
2019-03-03T15:16:21.773Z,12.59
2019-03-03T15:18:53.673Z,12.45
2019-03-03T15:21:25.310Z,12.46
2019-03-03T15:23:53.779Z,12.48
2019-03-03T15:26:23.501Z,12.32
2019-03-03T15:28:52.909Z,12.27
2019-03-03T15:31:21.734Z,12.25
2019-03-03T15:33:50.939Z,12.15
2019-03-03T15:36:21.852Z,12.15
2019-03-03T15:38:50.693Z,12.14
2019-03-03T15:41:20.160Z,12.13
2019-03-03T15:43:48.766Z,12.16
2019-03-03T15:46:17.551Z,12.20
2019-03-03T15:48:46.334Z,12.21
2019-03-03T15:51:15.061Z,12.18
2019-03-03T15:53:43.806Z,12.14
2019-03-03T15:56:12.502Z,12.22
2019-03-03T15:58:41.808Z,12.13
2019-03-03T16:01:14.798Z,12.12
2019-03-03T16:03:43.529Z,12.14
2019-03-03T16:06:12.243Z,12.10
2019-03-03T16:08:40.864Z,12.11
2019-03-03T16:11:09.631Z,12.11
2019-03-03T16:13:38.246Z,12.17
2019-03-03T16:16:06.914Z,12.26
2019-03-03T16:18:35.562Z,12.19
2019-03-03T16:21:04.210Z,12.15
2019-03-03T16:23:32.933Z,12.21
2019-03-03T16:26:01.606Z,12.20
2019-03-03T16:28:30.213Z,12.30
2019-03-03T16:30:58.836Z,12.28
2019-03-03T16:33:27.527Z,12.32
2019-03-03T16:35:56.137Z,12.51
2019-03-03T16:38:24.940Z,12.36
2019-03-03T16:40:53.577Z,12.32
2019-03-03T16:43:23.174Z,12.21
2019-03-03T16:45:51.899Z,12.28
2019-03-03T16:48:20.587Z,12.23
2019-03-03T16:50:49.330Z,12.12
2019-03-03T16:53:17.951Z,12.10
2019-03-03T16:55:46.571Z,12.18
2019-03-03T16:58:15.263Z,12.17
2019-03-03T17:00:43.927Z,12.14
2019-03-03T17:03:12.543Z,12.20
2019-03-03T17:05:41.242Z,12.14
2019-03-03T17:08:09.935Z,12.27
2019-03-03T17:10:38.701Z,12.18
2019-03-03T17:13:07.472Z,12.14
2019-03-03T17:15:36.120Z,12.16
2019-03-03T17:18:04.953Z,12.22
2019-03-03T17:20:33.627Z,12.36
2019-03-03T17:23:02.293Z,12.31
2019-03-03T17:25:30.952Z,12.25
2019-03-03T17:27:59.632Z,12.30
2019-03-03T17:30:28.508Z,12.28
2019-03-03T17:32:57.384Z,12.25
2019-03-03T17:35:26.077Z,12.30
2019-03-03T17:37:56.566Z,12.27
2019-03-03T17:40:25.123Z,12.33
2019-03-03T17:42:53.877Z,12.32
2019-03-03T17:45:23.070Z,12.27
2019-03-03T17:47:55.963Z,12.31
2019-03-03T17:50:27.183Z,12.29
2019-03-03T17:52:56.787Z,12.37
2019-03-03T17:55:33.091Z,12.30
2019-03-03T17:58:02.031Z,12.29
2019-03-03T18:00:39.183Z,12.28
2019-03-03T18:03:08.877Z,12.29
2019-03-03T18:05:41.880Z,12.23
2019-03-03T18:08:13.452Z,12.26
2019-03-03T18:10:46.259Z,12.31
2019-03-03T18:13:17.351Z,12.25
2019-03-03T18:15:51.191Z,12.21
2019-03-03T18:18:20.582Z,12.26
2019-03-03T18:20:49.939Z,12.32
2019-03-03T18:23:20.720Z,12.40
2019-03-03T18:25:51.471Z,12.27
2019-03-03T18:28:20.945Z,12.32
2019-03-03T18:30:50.812Z,12.30
2019-03-03T18:33:20.410Z,12.30
2019-03-03T18:35:50.466Z,12.28
2019-03-03T18:38:19.891Z,12.25
2019-03-03T18:40:48.954Z,12.26
2019-03-03T18:43:20.394Z,12.25
2019-03-03T18:45:49.202Z,12.21
2019-03-03T18:48:18.061Z,12.22
2019-03-03T18:50:48.331Z,12.26
2019-03-03T18:53:18.135Z,12.23
2019-03-03T18:55:48.161Z,12.28
2019-03-03T18:58:18.805Z,12.28
2019-03-03T19:00:48.709Z,12.26
2019-03-03T19:03:19.035Z,12.30
2019-03-03T19:05:55.466Z,12.24
2019-03-03T19:08:19.411Z,12.22
2019-03-03T19:10:48.894Z,12.26
2019-03-03T19:13:18.034Z,12.31
2019-03-03T19:15:48.983Z,12.28
2019-03-03T19:18:20.193Z,12.36
2019-03-03T19:20:49.347Z,12.26
2019-03-03T19:23:21.017Z,12.34
2019-03-03T19:25:54.178Z,12.32
2019-03-03T19:28:23.879Z,12.38
2019-03-03T19:30:53.888Z,12.36
2019-03-03T19:33:30.058Z,12.38
2019-03-03T19:36:07.539Z,12.47
2019-03-03T19:38:36.652Z,12.34
2019-03-03T19:41:06.022Z,12.37
2019-03-03T19:43:45.318Z,12.35
2019-03-03T19:46:14.189Z,12.32
2019-03-03T19:48:44.581Z,12.27
2019-03-03T19:51:15.780Z,12.25
2019-03-03T19:53:44.657Z,12.20
2019-03-03T19:56:14.949Z,12.26
2019-03-03T19:58:44.014Z,12.28
2019-03-03T20:01:12.863Z,12.29
2019-03-03T20:03:41.783Z,12.28
2019-03-03T20:06:10.687Z,12.25
2019-03-03T20:08:39.442Z,12.24
2019-03-03T20:11:11.043Z,12.18
2019-03-03T20:13:40.023Z,12.21
2019-03-03T20:16:09.146Z,12.17
2019-03-03T20:18:37.877Z,12.13
2019-03-03T20:21:07.119Z,12.16
2019-03-03T20:23:35.984Z,12.26
2019-03-03T20:26:05.041Z,12.21
2019-03-03T20:28:33.911Z,12.20
2019-03-03T20:31:03.001Z,12.21
2019-03-03T20:33:31.788Z,12.23
2019-03-03T20:36:00.623Z,12.24
2019-03-03T20:38:29.769Z,12.26
2019-03-03T20:41:01.797Z,12.28
2019-03-03T20:43:30.956Z,12.20
2019-03-03T20:45:59.884Z,12.20
2019-03-03T20:48:30.323Z,12.17
2019-03-03T20:50:59.069Z,12.22
2019-03-03T20:53:27.937Z,12.20
2019-03-03T20:55:59.168Z,12.12
2019-03-03T20:58:33.455Z,12.19
2019-03-03T21:01:05.383Z,12.19
2019-03-03T21:03:34.719Z,12.22
2019-03-03T21:06:03.699Z,12.25
2019-03-03T21:08:35.082Z,12.25
2019-03-03T21:11:04.212Z,12.27
2019-03-03T21:13:37.198Z,12.23
2019-03-03T21:16:06.067Z,12.27
2019-03-03T21:18:36.688Z,12.22
2019-03-03T21:21:06.063Z,12.21
2019-03-03T21:23:35.027Z,12.23
2019-03-03T21:26:04.697Z,12.30
2019-03-03T21:28:54.060Z,12.31
2019-03-03T21:31:23.732Z,12.28
2019-03-03T21:33:53.955Z,12.30
2019-03-03T21:36:23.285Z,12.30
2019-03-03T21:39:17.838Z,12.32
2019-03-03T21:41:55.842Z,12.37
2019-03-03T21:44:26.129Z,12.32
2019-03-03T21:47:10.720Z,12.31
2019-03-03T21:49:41.905Z,12.41
2019-03-03T21:52:13.008Z,12.30
2019-03-03T21:54:58.217Z,12.34
2019-03-03T21:57:28.856Z,12.35
2019-03-03T21:59:57.677Z,12.37
2019-03-03T22:02:26.971Z,12.28
2019-03-03T22:05:00.778Z,12.26
2019-03-03T22:08:06.309Z,12.01
2019-03-03T22:10:35.880Z,12.08
2019-03-03T22:13:12.475Z,12.08
2019-03-03T22:15:42.081Z,12.02
2019-03-03T22:18:23.599Z,11.89
2019-03-03T22:21:05.022Z,11.81
2019-03-03T22:23:36.223Z,11.76
2019-03-03T22:26:10.792Z,11.74
2019-03-03T22:28:43.733Z,11.78
2019-03-03T22:31:19.799Z,11.69
2019-03-03T22:33:53.138Z,11.73
2019-03-03T22:36:26.360Z,11.74
2019-03-03T22:42:18.382Z,11.70
2019-03-03T22:44:50.009Z,11.72
2019-03-03T22:47:26.216Z,11.58
2019-03-03T22:50:03.726Z,11.57
2019-03-03T22:52:32.670Z,11.52
2019-03-03T22:55:07.115Z,11.44
2019-03-03T22:57:42.407Z,11.46
2019-03-03T23:00:45.554Z,11.49
2019-03-03T23:03:24.091Z,11.34
2019-03-03T23:06:34.677Z,11.25
2019-03-03T23:09:40.963Z,11.28
2019-03-03T23:12:35.025Z,11.10
2019-03-03T23:15:38.701Z,11.17
2019-03-03T23:18:44.993Z,11.09
2019-03-03T23:21:43.070Z,11.17
2019-03-03T23:24:49.931Z,11.30
2019-03-03T23:27:20.077Z,11.27
2019-03-03T23:29:55.394Z,11.31
2019-03-03T23:32:31.179Z,11.30
2019-03-03T23:35:00.221Z,11.33
2019-03-03T23:37:35.382Z,11.38
2019-03-03T23:40:04.611Z,11.32
2019-03-03T23:42:33.361Z,11.34
2019-03-03T23:45:02.108Z,11.41
2019-03-03T23:47:33.555Z,11.45
2019-03-03T23:50:02.655Z,11.44
2019-03-03T23:52:31.485Z,11.52
2019-03-03T23:55:04.218Z,11.63
2019-03-03T23:57:33.913Z,11.69
